createdAt,value
2022-08-03T00:00:26.451Z,43.40
2022-08-03T00:02:53.550Z,43.70
2022-08-03T00:05:20.702Z,43.50
2022-08-03T00:07:48.430Z,43.50
2022-08-03T00:10:16.883Z,43.90
2022-08-03T00:12:43.837Z,44.00
2022-08-03T00:15:16.315Z,43.70
2022-08-03T00:17:51.981Z,43.70
2022-08-03T00:20:20.074Z,43.80
2022-08-03T00:22:46.967Z,43.50
2022-08-03T00:25:13.798Z,43.60
2022-08-03T00:27:40.687Z,43.40
2022-08-03T00:30:08.611Z,43.60
2022-08-03T00:32:35.411Z,43.40
2022-08-03T00:35:08.010Z,43.30
2022-08-03T00:37:41.060Z,43.20
2022-08-03T00:40:10.887Z,43.10
2022-08-03T00:42:47.787Z,43.20
2022-08-03T00:45:14.796Z,43.00
2022-08-03T00:47:41.707Z,43.20
2022-08-03T00:50:09.087Z,43.30
2022-08-03T00:52:36.326Z,43.50
2022-08-03T00:55:04.148Z,43.50
2022-08-03T00:57:33.042Z,43.40
2022-08-03T01:00:00.297Z,43.30
2022-08-03T01:02:28.778Z,43.20
2022-08-03T01:04:56.619Z,42.80
2022-08-03T01:07:50.382Z,42.30
2022-08-03T01:10:46.743Z,42.10
2022-08-03T01:14:01.433Z,42.20
2022-08-03T01:16:36.815Z,42.00
2022-08-03T01:19:44.855Z,41.80
2022-08-03T01:22:37.279Z,41.80
2022-08-03T01:25:14.760Z,41.90
2022-08-03T01:28:06.922Z,41.90
2022-08-03T01:30:37.699Z,41.40
2022-08-03T01:33:17.792Z,41.70
2022-08-03T01:35:57.849Z,41.60
2022-08-03T01:38:33.470Z,41.60
2022-08-03T01:41:07.310Z,41.40
2022-08-03T01:44:28.487Z,41.30
2022-08-03T01:46:23.582Z,41.00
2022-08-03T01:48:51.973Z,40.70
2022-08-03T01:51:21.003Z,41.20
2022-08-03T01:53:50.159Z,40.60
2022-08-03T01:56:19.206Z,40.80
2022-08-03T01:58:48.430Z,41.10
2022-08-03T02:01:16.815Z,41.00
2022-08-03T02:04:00.226Z,41.10
2022-08-03T02:07:02.841Z,41.20
2022-08-03T02:09:20.130Z,42.50
2022-08-03T02:11:48.239Z,42.80
2022-08-03T02:14:15.967Z,43.40
2022-08-03T02:16:44.799Z,43.10
2022-08-03T02:19:12.132Z,43.00
2022-08-03T02:21:57.249Z,43.30
2022-08-03T02:24:26.985Z,43.40
2022-08-03T02:26:56.085Z,43.90
2022-08-03T02:29:40.354Z,43.90
2022-08-03T02:32:12.604Z,44.00
2022-08-03T02:34:42.383Z,44.10
2022-08-03T02:37:11.703Z,44.60
2022-08-03T02:39:40.650Z,44.10
2022-08-03T02:42:09.715Z,43.70
2022-08-03T02:44:40.464Z,43.70
2022-08-03T02:47:10.944Z,43.70
2022-08-03T02:49:49.785Z,43.60
2022-08-03T02:52:20.824Z,44.10
2022-08-03T02:54:51.135Z,44.80
2022-08-03T02:57:20.093Z,44.70
2022-08-03T02:59:48.334Z,44.70
2022-08-03T03:02:17.331Z,44.20
2022-08-03T03:05:51.131Z,44.50
2022-08-03T03:07:34.689Z,44.70
2022-08-03T03:10:17.266Z,44.90
2022-08-03T03:12:45.550Z,45.10
2022-08-03T03:15:12.456Z,45.10
2022-08-03T03:17:39.752Z,45.40
2022-08-03T03:20:08.201Z,43.80
2022-08-03T03:22:36.243Z,42.80
2022-08-03T03:25:03.572Z,44.00
2022-08-03T03:27:31.059Z,44.40
2022-08-03T03:29:59.623Z,44.80
2022-08-03T03:32:30.353Z,45.70
2022-08-03T03:34:59.269Z,46.00
2022-08-03T03:37:29.350Z,46.30
2022-08-03T03:39:56.396Z,46.70
2022-08-03T03:42:25.022Z,47.80
2022-08-03T03:44:52.027Z,48.20
2022-08-03T03:47:19.004Z,48.10
2022-08-03T03:50:00.233Z,48.40
2022-08-03T03:52:27.106Z,48.50
2022-08-03T03:54:58.911Z,48.30
2022-08-03T03:57:27.836Z,48.50
2022-08-03T03:59:54.849Z,48.10
2022-08-03T04:02:21.834Z,48.90
2022-08-03T04:05:07.118Z,48.90
2022-08-03T04:08:05.337Z,49.20
2022-08-03T04:10:54.582Z,49.20
2022-08-03T04:13:22.730Z,49.50
2022-08-03T04:15:50.776Z,48.90
2022-08-03T04:18:19.700Z,48.90
2022-08-03T04:20:48.858Z,48.80
2022-08-03T04:23:21.145Z,48.70
2022-08-03T04:25:50.450Z,48.90
2022-08-03T04:28:31.202Z,48.80
2022-08-03T04:31:00.205Z,49.10
2022-08-03T04:33:29.717Z,49.20
2022-08-03T04:36:02.072Z,49.30
2022-08-03T04:38:36.673Z,49.40
2022-08-03T04:41:03.856Z,49.60
2022-08-03T04:43:33.146Z,49.50
2022-08-03T04:46:01.553Z,49.90
2022-08-03T04:48:29.376Z,49.90
2022-08-03T04:50:56.494Z,50.10
2022-08-03T04:53:23.458Z,49.80
2022-08-03T04:55:50.400Z,49.80
2022-08-03T04:58:17.281Z,50.20
2022-08-03T05:00:45.681Z,49.70
2022-08-03T05:03:20.274Z,48.50
2022-08-03T05:05:52.460Z,48.50
2022-08-03T05:08:20.677Z,48.10
2022-08-03T05:10:55.817Z,47.80
2022-08-03T05:13:25.738Z,47.90
2022-08-03T05:15:52.848Z,46.80
2022-08-03T05:18:19.967Z,46.80
2022-08-03T05:20:47.049Z,46.00
2022-08-03T05:23:13.934Z,46.10
2022-08-03T05:25:49.789Z,46.00
2022-08-03T05:28:17.027Z,45.30
2022-08-03T05:30:43.931Z,45.30
2022-08-03T05:33:11.378Z,45.10
2022-08-03T05:36:01.347Z,45.10
2022-08-03T05:38:28.706Z,44.70
2022-08-03T05:41:20.495Z,44.80
2022-08-03T05:43:45.119Z,44.30
2022-08-03T05:46:13.188Z,44.00
2022-08-03T05:48:40.723Z,44.00
2022-08-03T05:51:11.544Z,44.40
2022-08-03T05:53:42.473Z,44.00
2022-08-03T05:56:14.666Z,44.10
2022-08-03T05:58:48.415Z,43.80
2022-08-03T06:01:16.925Z,43.60
2022-08-03T06:03:44.471Z,43.80
2022-08-03T06:06:11.810Z,43.80
2022-08-03T06:08:39.397Z,42.60
2022-08-03T06:11:06.482Z,42.60
2022-08-03T06:13:33.579Z,42.40
2022-08-03T06:16:00.553Z,42.60
2022-08-03T06:18:27.423Z,42.20
2022-08-03T06:20:55.134Z,42.10
2022-08-03T06:23:22.415Z,42.20
2022-08-03T06:25:49.400Z,42.00
2022-08-03T06:28:52.390Z,41.80
2022-08-03T06:31:06.576Z,41.60
2022-08-03T06:33:48.483Z,41.70
2022-08-03T06:36:20.719Z,41.50
2022-08-03T06:38:47.818Z,40.70
2022-08-03T06:41:14.754Z,40.90
2022-08-03T06:44:03.830Z,40.80
2022-08-03T06:46:29.243Z,40.80
2022-08-03T06:48:56.725Z,40.20
2022-08-03T06:52:06.262Z,39.70
2022-08-03T06:54:10.967Z,40.20
2022-08-03T06:56:37.829Z,39.10
2022-08-03T06:59:04.785Z,39.20
2022-08-03T07:01:31.674Z,38.80
2022-08-03T07:03:58.836Z,39.10
2022-08-03T07:06:25.724Z,38.40
2022-08-03T07:08:56.483Z,38.40
2022-08-03T07:11:25.914Z,38.30
2022-08-03T07:13:52.789Z,38.50
2022-08-03T07:16:20.077Z,37.80
2022-08-03T07:18:46.878Z,37.20
2022-08-03T07:21:13.831Z,36.60
2022-08-03T07:23:40.681Z,36.40
2022-08-03T07:26:07.596Z,36.00
2022-08-03T07:28:34.579Z,36.10
2022-08-03T07:31:01.400Z,35.80
2022-08-03T07:33:28.304Z,35.80
2022-08-03T07:35:55.177Z,35.50
2022-08-03T07:38:21.975Z,35.00
2022-08-03T07:40:48.947Z,34.60
2022-08-03T07:43:15.752Z,34.20
2022-08-03T07:45:42.633Z,33.70
2022-08-03T07:48:12.403Z,33.60
2022-08-03T07:50:39.529Z,32.70
2022-08-03T07:53:06.403Z,32.80
2022-08-03T07:55:33.539Z,32.50
2022-08-03T07:58:09.900Z,32.40
2022-08-03T08:00:37.022Z,32.30
2022-08-03T08:03:04.788Z,32.00
2022-08-03T08:05:31.979Z,32.20
2022-08-03T08:07:58.985Z,31.50
2022-08-03T08:10:25.918Z,31.00
2022-08-03T08:12:52.890Z,31.80
2022-08-03T08:15:19.773Z,31.20
2022-08-03T08:17:52.455Z,30.10
2022-08-03T08:20:30.593Z,29.90
2022-08-03T08:23:08.860Z,29.60
2022-08-03T08:25:52.648Z,29.30
2022-08-03T08:28:29.785Z,29.30
2022-08-03T08:31:00.387Z,29.40
2022-08-03T08:33:37.255Z,29.20
2022-08-03T08:36:15.544Z,29.30
2022-08-03T08:38:44.624Z,28.50
2022-08-03T08:41:12.844Z,28.40
2022-08-03T08:43:40.104Z,27.80
2022-08-03T08:46:08.555Z,27.70
2022-08-03T08:48:41.523Z,27.40
2022-08-03T08:51:10.871Z,26.90
2022-08-03T08:53:40.426Z,27.20
2022-08-03T08:56:10.302Z,26.30
2022-08-03T08:58:47.156Z,26.30
2022-08-03T09:01:14.083Z,26.40
2022-08-03T09:03:41.680Z,26.10
2022-08-03T09:06:08.560Z,25.90
2022-08-03T09:08:35.755Z,26.10
2022-08-03T09:11:02.668Z,26.00
2022-08-03T09:13:31.108Z,26.40
2022-08-03T09:16:12.676Z,25.40
2022-08-03T09:18:41.085Z,26.10
2022-08-03T09:21:33.338Z,24.80
2022-08-03T09:24:05.417Z,24.70
2022-08-03T09:26:35.137Z,24.30
2022-08-03T09:29:07.165Z,24.30
2022-08-03T09:31:46.385Z,24.30
2022-08-03T09:34:17.043Z,24.00
2022-08-03T09:36:46.726Z,24.00
2022-08-03T09:39:21.530Z,23.70
2022-08-03T09:42:15.054Z,24.00
2022-08-03T09:44:47.367Z,23.80
2022-08-03T09:47:17.979Z,23.70
2022-08-03T09:50:01.396Z,23.30
2022-08-03T09:52:38.968Z,23.30
2022-08-03T09:56:32.513Z,23.20
2022-08-03T09:58:12.806Z,22.70
2022-08-03T10:01:00.106Z,23.10
2022-08-03T10:03:36.096Z,22.60
2022-08-03T10:06:22.981Z,22.50
2022-08-03T10:09:25.191Z,22.20
2022-08-03T10:11:52.123Z,22.30
2022-08-03T10:14:19.847Z,22.20
2022-08-03T10:16:48.239Z,21.60
2022-08-03T10:19:15.781Z,21.60
2022-08-03T10:21:50.805Z,20.80
2022-08-03T10:24:24.354Z,21.00
2022-08-03T10:26:53.702Z,20.50
2022-08-03T10:29:27.427Z,20.80
2022-08-03T10:31:58.742Z,21.20
2022-08-03T10:34:35.455Z,20.20
2022-08-03T10:37:06.675Z,20.40
2022-08-03T10:39:33.790Z,20.20
2022-08-03T10:42:02.922Z,19.60
2022-08-03T10:44:40.219Z,20.20
2022-08-03T10:47:10.519Z,20.00
2022-08-03T10:49:38.369Z,19.50
2022-08-03T10:52:13.653Z,19.10
2022-08-03T10:55:11.229Z,19.50
2022-08-03T10:57:58.576Z,20.10
2022-08-03T11:00:27.584Z,18.90
2022-08-03T11:03:16.899Z,18.00
2022-08-03T11:05:53.852Z,18.50
2022-08-03T11:08:26.603Z,17.80
2022-08-03T11:10:59.556Z,18.60
2022-08-03T11:13:30.884Z,18.40
2022-08-03T11:16:02.998Z,17.90
2022-08-03T11:18:31.856Z,18.20
2022-08-03T11:21:00.372Z,17.50
2022-08-03T11:24:02.642Z,17.90
2022-08-03T11:26:33.077Z,17.70
2022-08-03T11:29:29.279Z,17.40
2022-08-03T11:31:56.420Z,18.60
2022-08-03T11:34:24.532Z,18.80
2022-08-03T11:37:22.268Z,18.90
2022-08-03T11:39:51.366Z,18.70
2022-08-03T11:42:24.061Z,18.80
2022-08-03T11:44:52.387Z,18.70
2022-08-03T11:47:21.291Z,18.00
2022-08-03T11:49:49.534Z,17.10
2022-08-03T11:52:19.597Z,17.60
2022-08-03T11:54:57.189Z,17.10
2022-08-03T11:59:17.275Z,16.30
2022-08-03T12:00:30.506Z,16.20
2022-08-03T12:03:06.191Z,16.20
2022-08-03T12:05:37.587Z,16.20
2022-08-03T12:08:06.891Z,16.10
2022-08-03T12:10:34.299Z,16.10
2022-08-03T12:13:02.344Z,15.80
2022-08-03T12:15:35.709Z,16.60
2022-08-03T12:18:04.926Z,16.60
2022-08-03T12:20:38.060Z,16.00
2022-08-03T12:23:07.073Z,15.70
2022-08-03T12:25:39.590Z,15.80
2022-08-03T12:28:30.453Z,16.50
2022-08-03T12:31:06.392Z,15.60
2022-08-03T12:33:53.740Z,15.60
2022-08-03T12:36:20.640Z,15.70
2022-08-03T12:38:57.368Z,14.90
2022-08-03T12:41:35.408Z,14.90
2022-08-03T12:44:07.514Z,14.90
2022-08-03T12:46:47.098Z,15.10
2022-08-03T12:49:17.976Z,14.70
2022-08-03T12:51:44.834Z,15.00
2022-08-03T12:54:24.863Z,15.10
2022-08-03T12:57:04.653Z,15.30
2022-08-03T12:59:35.303Z,15.30
2022-08-03T13:02:23.743Z,14.90
2022-08-03T13:04:52.618Z,14.50
2022-08-03T13:07:20.667Z,14.90
2022-08-03T13:09:56.345Z,14.20
2022-08-03T13:12:25.602Z,14.40
2022-08-03T13:14:55.712Z,14.20
2022-08-03T13:17:22.849Z,13.90
2022-08-03T13:19:50.416Z,14.00
2022-08-03T13:22:24.098Z,14.80
2022-08-03T13:24:57.777Z,14.30
2022-08-03T13:28:04.598Z,14.20
2022-08-03T13:30:17.895Z,14.50
2022-08-03T13:32:58.715Z,14.10
2022-08-03T13:35:25.856Z,13.80
2022-08-03T13:37:52.768Z,14.00
2022-08-03T13:40:19.772Z,13.30
2022-08-03T13:42:50.623Z,13.20
2022-08-03T13:45:17.782Z,13.20
2022-08-03T13:47:44.735Z,14.00
2022-08-03T13:50:11.682Z,13.10
2022-08-03T13:52:38.538Z,12.50
2022-08-03T13:55:07.109Z,12.70
2022-08-03T13:58:11.639Z,12.70
2022-08-03T14:00:28.563Z,12.90
2022-08-03T14:03:16.383Z,13.40
2022-08-03T14:05:44.253Z,13.00
2022-08-03T14:08:12.204Z,12.70
2022-08-03T14:10:42.359Z,13.10
2022-08-03T14:13:10.589Z,12.90
2022-08-03T14:15:38.678Z,12.40
2022-08-03T14:18:15.702Z,11.70
2022-08-03T14:20:54.272Z,12.10
2022-08-03T14:23:23.077Z,12.40
2022-08-03T14:25:51.844Z,11.90
2022-08-03T14:28:22.983Z,12.30
2022-08-03T14:30:54.203Z,12.40
2022-08-03T14:33:21.086Z,12.40
2022-08-03T14:35:48.442Z,12.10
2022-08-03T14:38:15.594Z,12.90
2022-08-03T14:40:42.813Z,12.30
2022-08-03T14:43:09.803Z,11.80
2022-08-03T14:45:36.762Z,12.20
2022-08-03T14:50:29.739Z,12.30
2022-08-03T14:50:56.738Z,11.60
2022-08-03T14:53:24.243Z,11.70
2022-08-03T14:55:52.900Z,11.40
2022-08-03T14:58:21.845Z,11.80
2022-08-03T15:00:50.767Z,11.10
2022-08-03T15:03:21.496Z,11.20
2022-08-03T15:05:48.653Z,10.90
2022-08-03T15:08:15.947Z,11.10
2022-08-03T15:10:44.133Z,10.90
2022-08-03T15:13:16.116Z,10.80
2022-08-03T15:15:43.236Z,11.20
2022-08-03T15:18:10.195Z,10.80
2022-08-03T15:20:44.501Z,10.40
2022-08-03T15:23:13.985Z,10.30
2022-08-03T15:26:07.092Z,10.10
2022-08-03T15:28:27.734Z,10.00
2022-08-03T15:30:54.682Z,10.40
2022-08-03T15:33:21.778Z,10.10
2022-08-03T15:35:49.803Z,10.20
2022-08-03T15:38:17.035Z,10.50
2022-08-03T15:40:43.927Z,10.00
2022-08-03T15:43:11.322Z,9.90
2022-08-03T15:45:38.194Z,10.10
2022-08-03T15:48:06.225Z,9.60
2022-08-03T15:50:33.208Z,9.90
2022-08-03T15:53:00.436Z,10.00
2022-08-03T15:55:27.811Z,10.00
2022-08-03T15:59:10.193Z,9.80
2022-08-03T16:00:43.120Z,9.60
2022-08-03T16:03:10.860Z,9.80
2022-08-03T16:05:39.019Z,9.70
2022-08-03T16:08:09.154Z,9.30
2022-08-03T16:10:40.696Z,9.70
2022-08-03T16:13:08.202Z,9.90
2022-08-03T16:15:38.726Z,9.60
2022-08-03T16:18:06.942Z,9.50
2022-08-03T16:20:35.383Z,9.80
2022-08-03T16:23:10.752Z,9.20
2022-08-03T16:25:44.426Z,9.30
2022-08-03T16:28:17.132Z,9.30
2022-08-03T16:30:46.466Z,9.00
2022-08-03T16:33:17.249Z,9.10
2022-08-03T16:35:46.140Z,9.40
2022-08-03T16:38:18.631Z,9.60
2022-08-03T16:40:47.376Z,9.10
2022-08-03T16:43:18.002Z,9.80
2022-08-03T16:45:46.792Z,9.70
2022-08-03T16:48:17.294Z,9.70
2022-08-03T16:50:44.988Z,10.20
2022-08-03T16:53:16.343Z,9.90
2022-08-03T16:55:53.167Z,10.10
2022-08-03T16:58:41.704Z,10.20
2022-08-03T17:01:22.245Z,10.80
2022-08-03T17:04:02.025Z,10.40
2022-08-03T17:06:36.401Z,10.60
2022-08-03T17:09:09.843Z,10.40
2022-08-03T17:11:43.985Z,10.90
2022-08-03T17:14:14.832Z,11.40
2022-08-03T17:16:52.100Z,11.40
2022-08-03T17:19:25.923Z,11.60
2022-08-03T17:22:04.102Z,11.00
2022-08-03T17:24:41.312Z,11.80
2022-08-03T17:28:41.728Z,11.60
2022-08-03T17:30:13.341Z,11.90
2022-08-03T17:32:56.924Z,11.60
2022-08-03T17:35:36.725Z,12.60
2022-08-03T17:38:10.508Z,12.60
2022-08-03T17:40:48.067Z,12.60
2022-08-03T17:44:13.707Z,12.60
2022-08-03T17:46:07.817Z,12.30
2022-08-03T17:48:41.400Z,12.70
2022-08-03T17:51:30.695Z,12.80
2022-08-03T17:54:18.059Z,13.20
2022-08-03T17:56:48.282Z,13.50
2022-08-03T17:59:50.869Z,13.20
2022-08-03T18:02:55.046Z,13.30
2022-08-03T18:05:25.490Z,13.20
2022-08-03T18:08:16.919Z,13.80
2022-08-03T18:10:49.781Z,13.80
2022-08-03T18:13:30.638Z,14.20
2022-08-03T18:16:02.553Z,13.80
2022-08-03T18:18:44.201Z,14.20
2022-08-03T18:21:17.187Z,14.40
2022-08-03T18:23:46.017Z,14.30
2022-08-03T18:26:17.510Z,14.70
2022-08-03T18:28:44.760Z,14.60
2022-08-03T18:31:59.961Z,14.50
2022-08-03T18:34:16.367Z,14.40
2022-08-03T18:36:51.562Z,14.60
2022-08-03T18:39:21.958Z,15.00
2022-08-03T18:41:48.801Z,14.70
2022-08-03T18:44:45.613Z,15.10
2022-08-03T18:47:07.021Z,15.10
2022-08-03T18:50:05.431Z,15.00
2022-08-03T18:52:53.191Z,15.40
2022-08-03T18:55:39.223Z,15.80
2022-08-03T18:58:52.376Z,15.60
2022-08-03T19:01:57.511Z,15.90
2022-08-03T19:04:46.829Z,16.50
2022-08-03T19:07:22.182Z,16.80
2022-08-03T19:09:55.622Z,16.80
2022-08-03T19:12:39.509Z,17.50
2022-08-03T19:15:12.957Z,17.40
2022-08-03T19:17:53.016Z,17.90
2022-08-03T19:20:25.979Z,18.30
2022-08-03T19:22:54.596Z,17.80
2022-08-03T19:25:34.398Z,18.00
2022-08-03T19:28:06.201Z,18.60
2022-08-03T19:30:46.172Z,18.90
2022-08-03T19:33:20.827Z,18.60
2022-08-03T19:35:54.956Z,19.40
2022-08-03T19:38:28.501Z,19.40
2022-08-03T19:41:02.568Z,19.10
2022-08-03T19:43:49.291Z,19.10
2022-08-03T19:46:22.954Z,19.20
2022-08-03T19:49:16.013Z,19.70
2022-08-03T19:52:00.968Z,19.50
2022-08-03T19:54:36.546Z,19.90
2022-08-03T19:57:17.621Z,19.40
2022-08-03T19:59:49.881Z,19.90
2022-08-03T20:02:26.966Z,20.60
2022-08-03T20:04:59.759Z,19.90
2022-08-03T20:07:28.981Z,20.40
2022-08-03T20:09:59.684Z,20.70
2022-08-03T20:12:31.298Z,20.50
2022-08-03T20:15:01.861Z,20.70
2022-08-03T20:17:57.050Z,20.60
2022-08-03T20:20:21.070Z,20.70
2022-08-03T20:22:57.618Z,20.70
2022-08-03T20:25:38.349Z,21.10
2022-08-03T20:28:13.955Z,21.10
2022-08-03T20:30:46.439Z,20.90
2022-08-03T20:33:18.673Z,21.30
2022-08-03T20:35:49.280Z,21.80
2022-08-03T20:41:05.364Z,22.00
2022-08-03T20:43:34.935Z,21.80
2022-08-03T20:46:32.680Z,22.50
2022-08-03T20:48:49.187Z,21.90
2022-08-03T20:51:19.988Z,22.00
2022-08-03T20:53:59.809Z,22.70
2022-08-03T20:56:34.419Z,22.30
2022-08-03T20:59:06.065Z,22.80
2022-08-03T21:01:36.350Z,22.50
2022-08-03T21:04:09.339Z,22.70
2022-08-03T21:06:41.807Z,22.70
2022-08-03T21:09:18.439Z,22.90
2022-08-03T21:11:50.463Z,22.90
2022-08-03T21:13:07.170Z,22.00
2022-08-03T21:14:23.368Z,22.80
2022-08-03T21:16:52.049Z,22.80
2022-08-03T21:19:21.405Z,23.20
2022-08-03T21:21:49.527Z,23.20
2022-08-03T21:24:17.995Z,23.20
2022-08-03T21:26:47.551Z,23.60
2022-08-03T21:29:16.797Z,23.50
2022-08-03T21:31:44.087Z,24.00
2022-08-03T21:34:11.065Z,24.00
2022-08-03T21:36:38.146Z,24.20
2022-08-03T21:39:08.077Z,24.70
2022-08-03T21:41:36.374Z,25.00
2022-08-03T21:44:04.940Z,24.70
2022-08-03T21:46:40.739Z,25.10
2022-08-03T21:50:05.660Z,25.00
2022-08-03T21:51:59.545Z,25.40
2022-08-03T21:54:33.640Z,25.50
2022-08-03T21:57:04.822Z,25.50
2022-08-03T21:59:36.027Z,25.70
2022-08-03T22:02:03.343Z,25.50
2022-08-03T22:04:50.732Z,26.00
2022-08-03T22:07:22.038Z,26.10
2022-08-03T22:09:52.063Z,25.80
2022-08-03T22:12:24.132Z,25.70
2022-08-03T22:15:00.920Z,25.60
2022-08-03T22:17:54.849Z,25.50
2022-08-03T22:20:28.178Z,25.40
2022-08-03T22:22:58.598Z,25.10
2022-08-03T22:25:29.904Z,25.50
2022-08-03T22:28:01.696Z,25.30
2022-08-03T22:30:29.258Z,25.50
2022-08-03T22:32:57.502Z,26.00
2022-08-03T22:35:25.874Z,25.90
2022-08-03T22:37:57.831Z,25.80
2022-08-03T22:40:26.330Z,26.00
2022-08-03T22:42:54.303Z,26.00
2022-08-03T22:46:07.818Z,26.20
2022-08-03T22:48:08.506Z,26.20
2022-08-03T22:50:35.571Z,26.50
2022-08-03T22:53:02.595Z,26.40
2022-08-03T22:55:29.546Z,26.70
2022-08-03T22:57:56.610Z,27.00
2022-08-03T23:00:24.495Z,26.90
2022-08-03T23:02:53.665Z,27.30
2022-08-03T23:06:01.693Z,27.70
2022-08-03T23:08:14.663Z,27.50
2022-08-03T23:10:46.822Z,27.70
2022-08-03T23:13:17.010Z,27.40
2022-08-03T23:15:50.939Z,27.90
2022-08-03T23:18:20.762Z,28.10
2022-08-03T23:20:51.791Z,27.90
2022-08-03T23:23:19.965Z,28.40
2022-08-03T23:25:50.044Z,28.30
2022-08-03T23:28:19.389Z,28.10
2022-08-03T23:30:48.214Z,28.40
2022-08-03T23:33:16.440Z,28.60
2022-08-03T23:36:29.113Z,28.60
2022-08-03T23:38:48.427Z,28.90
2022-08-03T23:41:17.585Z,28.90
2022-08-03T23:43:52.329Z,29.20
2022-08-03T23:46:22.728Z,29.30
2022-08-03T23:48:51.112Z,29.30
2022-08-03T23:51:52.332Z,29.40
2022-08-03T23:54:48.051Z,29.30
2022-08-03T23:57:33.398Z,29.80
